Glasgow, Iowa
Current Conditions -  °F | °C
As of 12:15 PM on Thursday 30 Oct 2014 (Local Time) from KFFL Reporting Station
Clear Clear  
Wind Chill: 55°   Ceiling: Unl
Heat Index: 55°   Visibility: NA
Dew Point: 37°   Wind: 10mph
Humidity: 51%   Direction: 140°SE
Pressure: 30.04"   Gusts: NA
Location:  40.9879°N, 91.8924°W
Report Text: KFFL 301715Z AUTO 14009KT CLR 13/03 A3004 RMK AO2
Loading
Personal Weather Stations






























Interactive Weather Map
Tropical Storm Tracking
New forecast layout! Learn more

10-Day Weather Forecast

Advertisements
Track Severe Weather on mobile